Apple Valley, California
Current Conditions -  °F | °C
As of 4:15 PM on Thursday 27 Nov 2014 (Local Time) from KVCV Reporting Station
Clear Clear  
Wind Chill: 68°   Ceiling: Unl
Heat Index: 68°   Visibility: 10mi
Dew Point: 14°   Wind: 0mph
Humidity: 12%   Direction: NA
Pressure: 30.17"   Gusts: NA
Location:  34.52°N, 117.21°W
Report Text: KVCV 280015Z AUTO 00000KT 10SM CLR 20/M10 A3017 RMK AO2
Loading
Personal Weather Stations






























Interactive Weather Map New forecast layout! Learn more

10-Day Weather Forecast

Advertisements
Track Severe Weather on mobile